Terminal Aerodrome Forecast
Issued by NWS Upton, NY

Home | Current Version | Previous Version | Text Only | Print | Product List | Glossary On
Versions: 1 2 3 4 5 6 7 8 9 10 11 12 13 14 15 16 17 18 19 20 21 22 23 24 25 26 27 28 29 30 31 32 33 34
434
FTUS41 KOKX 290540
TAFLGA
TAF
KLGA 290540Z 2906/3006 04004KT P6SM -SHRA OVC100
     FM290900 05006KT 6SM -SHRA OVC050
     FM291000 06009KT 5SM -SHRA OVC035
     FM291200 06013KT 2SM SHRA OVC015
     FM291400 01012G20KT 2SM SHRA OVC015
     FM291800 01014G23KT P6SM BKN015
     FM291900 01013G23KT P6SM OVC090
     FM300100 06006KT P6SM BKN250
     FM300400 20004KT P6SM BKN250=

USA.gov is the U.S. government's official web portal to all federal, state and local government web resources and services.